Millican, Texas
Current Conditions -  °F | °C
As of 8:53 AM on Tuesday 21 Oct 2014 (Local Time) from KCLL Reporting Station
Clear Clear  
Wind Chill: 63°   Ceiling: Unl
Heat Index: 63°   Visibility: 10mi
Dew Point: 56°   Wind: 5mph
Humidity: 78%   Direction: 60°ENE
Pressure: 30.09"   Gusts: NA
Location:  30.47°N, 96.2°W
Report Text: KCLL 211353Z 06004KT 10SM CLR 17/13 A3009 RMK AO2 SLP185 T01720133
Loading
Personal Weather Stations






























Interactive Weather Map
Tropical Storm Tracking
New forecast layout! Learn more

10-Day Weather Forecast

Advertisements
Track Severe Weather on mobile